Time;durP1;ratioP1;P1;durP2;ratioP2;P2;SDS_P1;SDS_P2;PMS_P1;PMS_P2;Temp;Humidity;BMP_temperature;BMP_pressure;BME280_temperature;BME280_humidity;BME280_pressure;Samples;Min_cycle;Max_cycle;Signal;HPM_P1;HPM_P2
2022/02/09 00:04:11;;;;;;;;;4.25;2.50;;;;;13.13;42.42;99059.72;4946500;28;102430;-77
2022/02/09 00:09:09;;;;;;;;;3.00;2.00;;;;;13.14;42.57;99064.09;4990363;27;104168;-77
2022/02/09 00:11:45;;;;;;;;;3.00;3.00;;;;;13.16;42.11;99075.56;4984230;28;102601;-77
2022/02/09 00:19:32;;;;;;;;;4.25;4.25;;;;;13.14;42.44;99077.69;4976436;27;108920;-77
2022/02/09 00:27:54;;;;;;;;;2.25;2.25;;;;;13.16;42.58;99090.00;4982683;27;103263;-77
2022/02/09 00:41:14;;;;;;;;;2.00;1.75;;;;;13.12;41.95;99113.16;4978055;28;109127;-77
2022/02/09 01:57:37;;;;;;;;;1.00;1.00;;;;;13.05;41.92;99157.59;4972940;28;108845;-77
2022/02/09 02:00:06;;;;;;;;;1.75;1.75;;;;;13.03;42.12;99155.09;5002003;27;103056;-77
2022/02/09 02:02:33;;;;;;;;;1.00;1.00;;;;;13.04;42.79;99155.94;4980591;27;102380;-77
2022/02/09 02:05:00;;;;;;;;;2.00;1.00;;;;;13.05;42.49;99161.16;4977871;27;103865;-77
2022/02/09 02:07:38;;;;;;;;;1.00;1.00;;;;;13.07;42.15;99158.22;4945500;28;104183;-77
2022/02/09 02:10:09;;;;;;;;;2.00;2.00;;;;;13.05;42.45;99165.75;4979950;27;110454;-77
2022/02/09 02:18:31;;;;;;;;;2.00;2.00;;;;;13.04;41.93;99162.19;4980254;27;109046;-77
2022/02/09 02:23:45;;;;;;;;;2.75;2.00;;;;;13.04;42.17;99173.06;4986410;28;103526;-77
2022/02/09 02:26:27;;;;;;;;;2.75;2.00;;;;;13.04;42.52;99173.06;4981333;28;102124;-77
2022/02/09 02:34:30;;;;;;;;;1.00;1.00;;;;;13.03;42.32;99176.81;4980225;27;103007;-77
2022/02/09 02:37:03;;;;;;;;;2.00;2.00;;;;;13.04;42.54;99180.34;4974308;27;103274;-77
2022/02/09 02:45:47;;;;;;;;;2.00;1.00;;;;;13.00;42.71;99177.22;4979402;28;103549;-77
2022/02/09 02:59:16;;;;;;;;;1.00;1.00;;;;;13.00;42.46;99168.22;4984499;28;103752;-77
2022/02/09 03:17:59;;;;;;;;;1.25;1.00;;;;;13.12;42.67;99183.75;4982794;27;102830;-77
2022/02/09 03:20:41;;;;;;;;;1.00;1.00;;;;;13.16;42.68;99184.19;4994827;27;102635;-77
2022/02/09 03:23:28;;;;;;;;;1.00;1.00;;;;;13.20;41.97;99174.59;4979787;27;108647;-77
2022/02/09 03:55:48;;;;;;;;;1.50;0.50;;;;;13.45;42.15;99186.59;4966122;28;108651;-77
2022/02/09 03:58:18;;;;;;;;;0.50;0.50;;;;;13.46;42.04;99187.44;4973193;28;102437;-77
2022/02/09 04:00:47;;;;;;;;;0.00;0.00;;;;;13.47;42.45;99194.53;4983307;28;102271;-77
2022/02/09 04:03:18;;;;;;;;;1.00;0.00;;;;;13.47;42.07;99195.34;4974363;27;103255;-77
2022/02/09 04:05:47;;;;;;;;;0.00;0.00;;;;;13.47;42.65;99195.34;4988769;27;103897;-77
2022/02/09 04:08:17;;;;;;;;;0.00;0.00;;;;;13.48;42.61;99193.47;4994531;27;103711;-77
2022/02/09 04:10:50;;;;;;;;;2.00;0.00;;;;;13.48;41.82;99199.75;4974108;28;103691;-77
2022/02/09 04:13:34;;;;;;;;;1.00;1.00;;;;;13.48;42.44;99188.91;4976459;27;105029;-77
2022/02/09 04:16:18;;;;;;;;;0.50;0.50;;;;;13.48;41.62;99199.75;4996801;27;108853;-77
2022/02/09 04:18:56;;;;;;;;;0.00;0.00;;;;;13.50;42.50;99183.25;4987499;27;102132;-77
2022/02/09 04:38:15;;;;;;;;;1.00;1.00;;;;;13.49;41.71;99189.72;4981331;28;109772;-77
2022/02/09 04:56:26;;;;;;;;;0.75;0.75;;;;;13.47;41.85;99194.53;4978963;28;103159;-77
2022/02/09 05:24:16;;;;;;;;;2.75;1.00;;;;;13.43;42.67;99199.53;4972346;28;102797;-77
2022/02/09 05:27:01;;;;;;;;;1.00;1.00;;;;;13.43;41.66;99204.97;4973263;28;102163;-77
2022/02/09 05:29:28;;;;;;;;;1.00;1.00;;;;;13.43;42.48;99204.13;4967315;28;102350;-77
2022/02/09 05:31:55;;;;;;;;;1.25;1.00;;;;;13.42;41.94;99205.19;4959865;28;103797;-77
2022/02/09 05:34:22;;;;;;;;;1.00;1.00;;;;;13.42;41.98;99213.34;4987828;28;102675;-77
2022/02/09 05:36:49;;;;;;;;;1.00;1.00;;;;;13.39;42.49;99218.13;4983598;27;103484;-77
2022/02/09 05:39:16;;;;;;;;;0.25;0.25;;;;;13.37;42.51;99212.03;4985007;27;103440;-77
2022/02/09 05:41:45;;;;;;;;;1.00;1.00;;;;;13.38;42.19;99216.44;4976590;27;103609;-77
2022/02/09 05:44:14;;;;;;;;;1.00;1.00;;;;;13.40;41.97;99218.97;4984799;27;104414;-77
2022/02/09 05:56:47;;;;;;;;;1.00;0.50;;;;;13.36;42.55;99215.81;4968079;28;102221;-77
2022/02/09 05:59:28;;;;;;;;;0.75;0.75;;;;;13.36;42.03;99215.81;4977969;27;102585;-77
2022/02/09 06:01:56;;;;;;;;;1.00;0.00;;;;;13.37;42.60;99206.63;4982269;27;104242;-77
2022/02/09 06:04:23;;;;;;;;;1.00;1.00;;;;;13.35;42.90;99203.28;4976008;28;104879;-77
2022/02/09 06:06:50;;;;;;;;;0.75;0.75;;;;;13.34;42.11;99212.47;4976065;27;102568;-77
2022/02/09 06:09:17;;;;;;;;;0.00;0.00;;;;;13.35;42.62;99218.72;4977344;27;102510;-77
2022/02/09 06:12:02;;;;;;;;;1.00;1.00;;;;;13.34;42.18;99217.06;4980378;28;104016;-77
2022/02/09 06:19:53;;;;;;;;;0.00;0.00;;;;;13.30;42.23;99227.50;4970549;28;102361;-77
2022/02/09 06:22:21;;;;;;;;;2.50;2.50;;;;;13.27;43.01;99222.47;4978480;27;104062;-77
2022/02/09 06:24:48;;;;;;;;;1.50;1.50;;;;;13.28;42.64;99226.84;4987826;27;102491;-77
2022/02/09 06:27:16;;;;;;;;;1.00;1.00;;;;;13.32;43.13;99236.28;4983680;27;102278;-77
2022/02/09 06:29:46;;;;;;;;;2.00;1.00;;;;;13.34;42.90;99239.63;4979711;27;104283;-77
2022/02/09 06:32:14;;;;;;;;;1.00;1.00;;;;;13.39;42.72;99247.16;4983163;27;104481;-77
2022/02/09 06:34:42;;;;;;;;;1.25;1.00;;;;;13.42;42.29;99249.47;4989935;27;102457;-76
2022/02/09 06:37:23;;;;;;;;;1.00;1.00;;;;;13.44;42.21;99249.28;4986038;28;103261;-77
2022/02/09 06:39:58;;;;;;;;;1.00;1.00;;;;;13.48;42.10;99245.94;4986901;27;102477;-77
2022/02/09 06:42:26;;;;;;;;;1.25;1.00;;;;;13.51;42.88;99250.97;4986217;27;104094;-77
2022/02/09 06:44:57;;;;;;;;;2.00;1.00;;;;;13.53;42.43;99243.47;4980568;27;108364;-77
2022/02/09 06:47:26;;;;;;;;;1.25;1.25;;;;;13.57;42.25;99260.19;4990764;27;102072;-77
2022/02/09 06:50:04;;;;;;;;;1.50;1.50;;;;;13.59;42.42;99248.09;4986387;27;102256;-77
2022/02/09 06:52:31;;;;;;;;;2.00;1.25;;;;;13.61;42.86;99254.13;4998767;27;108788;-77
2022/02/09 06:55:33;;;;;;;;;1.00;1.00;;;;;13.64;41.83;99251.03;4987744;27;102051;-77
2022/02/09 07:00:23;;;;;;;;;1.00;1.00;;;;;13.70;41.95;99249.34;4974193;28;102110;-77
2022/02/09 07:02:50;;;;;;;;;2.00;1.00;;;;;13.72;41.99;99242.69;4980223;28;104046;-77
2022/02/09 07:05:17;;;;;;;;;1.00;1.00;;;;;13.75;41.98;99241.41;4981758;28;102601;-77
2022/02/09 07:07:44;;;;;;;;;3.75;3.00;;;;;13.77;42.08;99247.50;4993287;27;102491;-77
2022/02/09 07:10:11;;;;;;;;;1.00;1.00;;;;;13.79;42.09;99253.56;4990727;27;103057;-77
2022/02/09 07:12:39;;;;;;;;;1.00;1.00;;;;;13.80;41.82;99250.63;4995828;28;104049;-77
2022/02/09 07:15:09;;;;;;;;;1.25;1.25;;;;;13.84;41.74;99242.91;4982657;27;102375;-77
2022/02/09 07:17:36;;;;;;;;;1.00;1.00;;;;;13.85;42.56;99247.31;4983138;28;102437;-77
2022/02/09 07:20:12;;;;;;;;;2.00;2.00;;;;;13.90;42.26;99252.13;4982827;28;104788;-78
2022/02/09 07:22:40;;;;;;;;;2.00;1.75;;;;;13.90;41.88;99255.69;4983425;28;104208;-77
2022/02/09 07:25:17;;;;;;;;;2.50;2.00;;;;;13.92;42.08;99259.00;4984642;27;102126;-77
2022/02/09 07:27:52;;;;;;;;;3.00;2.00;;;;;13.95;41.79;99252.34;4980174;28;102445;-77
2022/02/09 07:30:22;;;;;;;;;3.00;2.00;;;;;13.96;42.48;99260.28;4989433;27;102497;-77
2022/02/09 07:33:00;;;;;;;;;2.00;2.00;;;;;13.98;42.12;99255.47;4989428;28;104075;-77
2022/02/09 07:35:27;;;;;;;;;2.00;1.00;;;;;14.00;41.73;99264.28;4985512;27;102186;-77
2022/02/09 07:37:54;;;;;;;;;3.00;2.00;;;;;14.01;42.33;99263.22;4978364;28;102343;-77
2022/02/09 07:40:21;;;;;;;;;2.50;2.25;;;;;14.01;42.39;99260.50;4980757;28;102458;-77
2022/02/09 07:42:55;;;;;;;;;1.75;1.75;;;;;14.04;42.11;99268.25;4973974;28;104494;-77
2022/02/09 07:45:41;;;;;;;;;1.50;1.50;;;;;14.06;42.34;99271.59;5002448;27;102567;-77
2022/02/09 07:50:44;;;;;;;;;1.25;1.25;;;;;14.10;41.95;99272.84;4992106;27;102488;-77
2022/02/09 07:53:22;;;;;;;;;1.00;1.00;;;;;14.12;41.58;99265.34;4978057;27;104093;-77
2022/02/09 07:55:49;;;;;;;;;2.00;2.00;;;;;14.14;42.33;99257.78;4980516;27;102874;-77
2022/02/09 07:58:16;;;;;;;;;3.50;2.00;;;;;14.14;42.25;99260.50;4981432;28;102505;-77
2022/02/09 08:00:45;;;;;;;;;2.25;2.00;;;;;14.16;41.35;99261.16;4987412;27;102399;-77
2022/02/09 08:03:12;;;;;;;;;3.00;3.00;;;;;14.17;42.16;99262.84;4972411;27;104126;-77
2022/02/09 08:05:44;;;;;;;;;2.00;2.00;;;;;14.19;41.85;99265.31;4968772;28;104276;-76
2022/02/09 08:08:11;;;;;;;;;2.75;2.75;;;;;14.20;42.06;99262.41;4995647;27;102337;-77
2022/02/09 08:10:47;;;;;;;;;4.00;3.00;;;;;14.20;42.01;99259.69;4979882;27;102455;-77
2022/02/09 08:29:45;;;;;;;;;1.00;1.00;;;;;14.32;41.73;99266.16;4984594;27;102364;-77
2022/02/09 08:34:39;;;;;;;;;3.00;3.00;;;;;14.34;41.48;99270.56;4971301;27;105050;-77
2022/02/09 08:37:06;;;;;;;;;2.00;2.00;;;;;14.36;42.10;99271.25;4982072;28;102441;-76
2022/02/09 08:39:33;;;;;;;;;2.00;2.00;;;;;14.36;41.59;99263.94;4991019;27;102595;-77
2022/02/09 08:42:00;;;;;;;;;1.50;1.00;;;;;14.37;41.67;99260.13;4989614;27;102215;-77
2022/02/09 08:44:27;;;;;;;;;2.50;2.00;;;;;14.39;41.96;99265.38;5001617;27;104063;-77
2022/02/09 08:46:54;;;;;;;;;2.00;2.00;;;;;14.40;41.90;99267.06;4987539;28;103149;-77
2022/02/09 08:49:22;;;;;;;;;2.50;2.00;;;;;14.41;42.09;99276.91;4989122;27;102400;-77
2022/02/09 08:51:48;;;;;;;;;2.00;2.00;;;;;14.40;42.03;99272.50;4986143;28;102187;-77
2022/02/09 08:54:17;;;;;;;;;4.00;2.75;;;;;14.41;41.94;99266.03;5008025;27;103996;-77
2022/02/09 08:56:44;;;;;;;;;2.00;1.00;;;;;14.42;41.58;99273.13;4976338;27;102386;-77
2022/02/09 08:59:11;;;;;;;;;1.00;1.00;;;;;14.43;41.41;99278.34;4983523;28;102396;-77
2022/02/09 09:01:42;;;;;;;;;3.00;3.00;;;;;14.43;41.94;99270.19;4985890;28;102540;-77
2022/02/09 09:04:24;;;;;;;;;3.50;3.00;;;;;14.45;41.64;99264.56;4985440;27;104510;-77
2022/02/09 09:06:56;;;;;;;;;3.00;2.25;;;;;14.45;41.83;99270.00;4983992;27;103101;-77
2022/02/09 10:03:36;;;;;;;;;3.75;3.00;;;;;14.54;41.98;99266.84;4992953;27;102413;-77
2022/02/09 10:34:04;;;;;;;;;6.00;3.00;;;;;14.57;41.57;99241.09;4986963;27;102506;-77
2022/02/09 10:36:51;;;;;;;;;4.00;3.00;;;;;14.58;42.09;99248.22;4984199;28;102265;-77
2022/02/09 10:39:59;;;;;;;;;4.00;3.00;;;;;14.58;41.55;99234.59;5009700;27;102371;-77
2022/02/09 10:42:43;;;;;;;;;3.00;3.00;;;;;14.58;41.40;99229.16;4975854;28;109257;-77
2022/02/09 10:45:30;;;;;;;;;7.00;3.00;;;;;14.57;42.09;99231.03;4979143;28;102547;-77
2022/02/09 10:47:58;;;;;;;;;4.00;4.00;;;;;14.57;42.09;99224.75;4986342;28;102403;-77
2022/02/09 10:50:31;;;;;;;;;4.00;4.00;;;;;14.58;41.45;99223.72;4984437;28;102395;-77
2022/02/09 10:53:00;;;;;;;;;5.25;4.00;;;;;14.57;41.66;99224.75;4972346;28;103992;-77
2022/02/09 10:55:43;;;;;;;;;5.25;3.00;;;;;14.58;41.49;99232.72;4984548;27;102104;-77
2022/02/09 10:58:17;;;;;;;;;3.25;3.25;;;;;14.59;42.07;99233.56;4978559;28;102051;-77
2022/02/09 11:00:45;;;;;;;;;3.75;3.00;;;;;14.58;41.87;99223.72;4989256;27;102558;-77
2022/02/09 11:03:22;;;;;;;;;3.00;3.00;;;;;14.58;41.53;99226.44;4974539;27;104279;-77
2022/02/09 11:05:51;;;;;;;;;4.75;4.00;;;;;14.58;41.59;99226.44;4981186;27;102322;-77
2022/02/09 11:08:18;;;;;;;;;6.00;5.00;;;;;14.57;42.06;99236.50;4981664;27;102337;-77
2022/02/09 11:10:45;;;;;;;;;3.25;3.25;;;;;14.59;41.81;99222.69;4986020;27;102400;-77
2022/02/09 11:13:13;;;;;;;;;3.00;3.00;;;;;14.60;41.70;99232.50;4981698;28;104134;-77
2022/02/09 11:15:46;;;;;;;;;4.00;4.00;;;;;14.60;41.94;99230.63;4987029;27;102243;-77
2022/02/09 11:18:16;;;;;;;;;2.75;2.75;;;;;14.60;41.70;99219.72;4982096;28;102226;-77
2022/02/09 11:20:59;;;;;;;;;4.00;4.00;;;;;14.61;42.02;99223.28;5003483;27;102575;-77
2022/02/09 11:23:55;;;;;;;;;4.00;3.75;;;;;14.61;41.87;99221.41;4982742;27;104061;-77
2022/02/09 11:27:04;;;;;;;;;3.25;3.25;;;;;14.62;41.51;99216.81;5007093;27;102381;-77
2022/02/09 11:32:08;;;;;;;;;4.00;3.75;;;;;14.62;41.78;99222.25;4987436;27;102683;-77
2022/02/09 11:40:45;;;;;;;;;3.00;3.00;;;;;14.61;41.85;99205.06;4994784;27;102285;-77
2022/02/09 11:43:35;;;;;;;;;4.25;3.50;;;;;14.62;41.75;99211.34;4981762;27;102186;-77
2022/02/09 12:00:58;;;;;;;;;3.00;2.00;;;;;14.63;41.65;99208.41;4988310;27;102438;-77
2022/02/09 12:12:02;;;;;;;;;4.00;4.00;;;;;14.64;41.94;99190.19;4984302;28;103972;-77
2022/02/09 12:20:27;;;;;;;;;4.25;3.00;;;;;14.64;41.56;99201.06;4978499;28;110639;-77
2022/02/09 12:23:24;;;;;;;;;4.25;4.00;;;;;14.63;41.58;99205.69;4980618;27;102723;-77
2022/02/09 12:25:52;;;;;;;;;2.00;2.00;;;;;14.63;42.02;99193.97;4982255;27;102548;-77
2022/02/09 12:28:25;;;;;;;;;4.25;3.00;;;;;14.64;41.96;99192.91;4982780;27;102606;-77
2022/02/09 12:31:09;;;;;;;;;4.00;2.25;;;;;14.65;41.52;99200.03;4976826;27;104260;-77
2022/02/09 12:33:44;;;;;;;;;4.00;3.00;;;;;14.65;41.42;99197.31;4980127;28;102139;-77
2022/02/09 12:36:13;;;;;;;;;4.75;3.75;;;;;14.65;41.63;99195.44;4977811;27;102333;-77
2022/02/09 12:38:41;;;;;;;;;3.75;3.00;;;;;14.66;42.20;99199.00;4982545;27;102465;-77
2022/02/09 12:41:15;;;;;;;;;3.75;3.00;;;;;14.66;41.67;99197.13;4985776;28;104063;-77
2022/02/09 12:43:48;;;;;;;;;5.00;4.00;;;;;14.65;41.63;99195.44;4990630;28;103067;-77
2022/02/09 12:46:16;;;;;;;;;4.50;4.00;;;;;14.65;41.52;99195.44;4985822;27;104733;-77
2022/02/09 12:48:43;;;;;;;;;3.00;2.75;;;;;14.65;42.25;99198.16;4980680;28;102249;-77
2022/02/09 12:51:29;;;;;;;;;3.50;3.00;;;;;14.66;41.78;99194.38;4988043;27;104098;-77
2022/02/09 12:54:02;;;;;;;;;2.00;2.00;;;;;14.66;41.56;99188.94;4979032;28;102567;-77
2022/02/09 12:56:35;;;;;;;;;4.00;3.00;;;;;14.65;41.71;99191.88;4981626;27;102207;-77
2022/02/09 12:59:07;;;;;;;;;3.25;2.75;;;;;14.67;41.54;99197.94;4991652;27;102773;-77
2022/02/09 13:01:53;;;;;;;;;4.75;4.75;;;;;14.66;42.40;99185.38;4989243;27;111311;-77
2022/02/09 13:04:34;;;;;;;;;5.25;4.00;;;;;14.65;41.88;99176.38;4970036;28;102891;-77
2022/02/09 13:07:07;;;;;;;;;3.00;3.00;;;;;14.65;42.01;99180.97;4976775;27;102459;-77
2022/02/09 13:09:34;;;;;;;;;3.75;2.25;;;;;14.66;41.62;99179.94;4994058;27;102706;-77
2022/02/09 13:12:02;;;;;;;;;5.00;3.00;;;;;14.65;41.72;99179.09;5001921;27;104000;-77
2022/02/09 13:14:43;;;;;;;;;4.25;2.00;;;;;14.66;41.61;99185.38;4979699;27;105097;-77
2022/02/09 13:17:25;;;;;;;;;4.00;4.00;;;;;14.67;41.73;99181.63;4976248;27;102362;-78
2022/02/09 13:23:20;;;;;;;;;4.00;3.00;;;;;14.66;42.18;99180.78;4938393;28;109097;-77
2022/02/09 14:11:32;;;;;;;;;2.25;2.25;;;;;14.66;42.32;99185.38;4977730;28;102296;-77
2022/02/09 14:54:59;;;;;;;;;6.25;5.75;;;;;14.64;42.45;99160.25;4979505;28;102049;-83
2022/02/09 14:57:31;;;;;;;;;7.75;6.00;;;;;14.63;41.87;99153.97;4986464;27;109902;-83
2022/02/09 15:10:50;;;;;;;;;4.75;4.00;;;;;14.61;42.17;99152.53;4969258;28;102534;-80
2022/02/09 15:22:07;;;;;;;;;4.50;4.00;;;;;14.60;42.20;99157.13;4986884;27;102559;-83
2022/02/09 15:24:13;;;;;;;;;10.00;5.00;;;;;14.59;42.18;99157.38;4973349;27;108662;-83
2022/02/09 15:26:43;;;;;;;;;4.75;4.00;;;;;14.58;42.65;99151.06;4986423;27;102530;-83
2022/02/09 15:29:14;;;;;;;;;5.00;4.00;;;;;14.58;42.02;99150.25;4971489;28;102750;-83
2022/02/09 15:32:01;;;;;;;;;6.00;5.75;;;;;14.58;42.23;99155.69;4975676;28;102321;-83
2022/02/09 15:34:53;;;;;;;;;7.75;5.00;;;;;14.57;41.81;99141.22;4978831;28;109753;-83
2022/02/09 15:37:32;;;;;;;;;5.50;5.00;;;;;14.58;41.99;99144.78;4966429;28;102225;-82
2022/02/09 15:40:07;;;;;;;;;5.00;4.25;;;;;14.58;42.19;99142.06;4972801;28;102429;-83
2022/02/09 16:08:12;;;;;;;;;5.25;3.25;;;;;14.65;42.24;99146.44;4982391;27;104509;-83
2022/02/09 16:23:33;;;;;;;;;3.25;3.00;;;;;14.76;43.38;99147.69;4981922;27;104687;-80
2022/02/09 16:33:11;;;;;;;;;3.75;3.00;;;;;14.74;43.05;99156.03;4982125;28;103566;-82
2022/02/09 16:46:02;;;;;;;;;6.00;4.00;;;;;14.70;43.22;99153.97;4979587;28;103470;-83
2022/02/09 16:48:30;;;;;;;;;4.50;3.75;;;;;14.69;43.27;99158.56;4979680;27;102405;-82
2022/02/09 16:51:00;;;;;;;;;3.25;2.75;;;;;14.68;43.52;99161.50;4972902;28;104406;-81
2022/02/09 16:53:44;;;;;;;;;9.00;4.75;;;;;14.67;43.47;99157.13;4963432;28;102625;-81
2022/02/09 17:20:29;;;;;;;;;3.50;3.00;;;;;14.58;42.96;99191.91;4978484;27;102333;-82
2022/02/09 17:22:56;;;;;;;;;7.75;5.00;;;;;14.57;43.23;99200.25;4971597;28;103798;-82
2022/02/09 17:25:23;;;;;;;;;5.00;4.75;;;;;14.57;43.44;99200.25;4970127;27;102231;-83
2022/02/09 17:27:50;;;;;;;;;5.00;5.00;;;;;14.56;43.23;99206.75;4971594;28;106928;-82
2022/02/09 17:30:39;;;;;;;;;4.25;4.00;;;;;14.55;43.04;99215.97;4976199;27;102669;-81
2022/02/09 17:33:15;;;;;;;;;5.50;5.00;;;;;14.53;42.95;99218.91;4977796;27;104208;-83
2022/02/09 17:35:49;;;;;;;;;5.25;4.50;;;;;14.53;43.20;99218.91;4979936;27;102425;-82
2022/02/09 17:38:31;;;;;;;;;5.00;4.25;;;;;14.53;42.82;99220.78;4972446;27;103476;-83
2022/02/09 18:00:16;;;;;;;;;8.75;7.75;;;;;14.62;45.96;99230.41;4984592;27;102630;-80
2022/02/09 18:02:47;;;;;;;;;15.50;13.50;;;;;14.67;46.46;99226.00;4977930;27;102754;-79
2022/02/09 18:05:22;;;;;;;;;23.75;21.25;;;;;14.72;46.89;99228.91;4964623;28;108737;-80
2022/02/09 18:07:51;;;;;;;;;24.25;20.50;;;;;14.76;46.61;99218.47;4983904;27;102450;-86
2022/02/09 18:29:28;;;;;;;;;32.50;30.75;;;;;14.74;45.13;99209.66;4989927;27;102611;-83
2022/02/09 20:02:57;;;;;;;;;19.00;17.00;;;;;14.37;44.59;99208.44;3804340;23;103514;-88
2022/02/09 20:05:24;;;;;;;;;22.00;18.00;;;;;14.38;44.40;99199.25;4812226;28;102705;-87
2022/02/09 20:07:52;;;;;;;;;24.75;21.00;;;;;14.40;44.29;99207.19;4811524;28;103515;-88
2022/02/09 20:10:19;;;;;;;;;17.50;17.25;;;;;14.40;44.22;99205.31;4818870;28;102524;-86
2022/02/09 20:12:46;;;;;;;;;20.50;20.00;;;;;14.41;44.32;99208.88;4815841;28;102231;-88
2022/02/09 20:15:16;;;;;;;;;20.50;20.00;;;;;14.40;44.66;99220.81;4815345;28;102321;-88
2022/02/09 20:17:44;;;;;;;;;19.75;19.25;;;;;14.41;44.08;99227.94;4798161;28;104256;-88
2022/02/09 20:20:16;;;;;;;;;17.00;16.50;;;;;14.40;44.03;99221.66;4814467;28;103795;-89
2022/02/09 20:22:44;;;;;;;;;20.50;17.25;;;;;14.39;44.61;99235.44;4813597;28;103416;-88
2022/02/09 20:25:12;;;;;;;;;20.25;18.25;;;;;14.39;43.85;99227.28;4830891;28;102296;-88
2022/02/09 20:27:39;;;;;;;;;19.75;19.25;;;;;14.37;44.59;99224.75;4818764;28;104309;-88
2022/02/09 20:30:10;;;;;;;;;22.25;19.75;;;;;14.35;44.07;99224.13;4812785;28;102480;-86
2022/02/09 20:32:43;;;;;;;;;17.00;17.00;;;;;14.34;43.94;99221.59;4820332;28;102852;-86
2022/02/09 20:35:13;;;;;;;;;19.75;17.75;;;;;14.32;44.17;99222.66;4807514;28;102510;-86
2022/02/09 20:37:47;;;;;;;;;20.50;18.25;;;;;14.30;44.60;99219.31;4820873;28;104185;-86
2022/02/09 20:40:27;;;;;;;;;17.75;15.75;;;;;14.29;44.23;99217.63;4815196;28;103285;-88
2022/02/09 20:42:59;;;;;;;;;19.50;17.25;;;;;14.28;44.08;99213.22;4800698;28;102524;-87
2022/02/09 20:45:32;;;;;;;;;19.00;17.00;;;;;14.27;43.99;99214.28;4794710;28;102991;-87
2022/02/09 20:48:14;;;;;;;;;17.00;16.50;;;;;14.25;44.47;99210.94;4806681;28;104105;-88
2022/02/09 20:50:41;;;;;;;;;21.00;17.75;;;;;14.26;44.07;99204.47;4827165;28;102251;-89
2022/02/09 20:53:08;;;;;;;;;16.50;13.25;;;;;14.27;44.45;99203.38;4818373;28;102499;-89
2022/02/09 20:55:37;;;;;;;;;16.75;14.50;;;;;14.28;44.02;99202.34;4805824;28;102971;-89
2022/02/09 20:58:04;;;;;;;;;12.50;11.75;;;;;14.28;44.34;99207.78;4819914;28;104074;-88
2022/02/09 21:00:53;;;;;;;;;16.25;16.25;;;;;14.26;43.66;99204.47;4811698;28;103030;-89
2022/02/09 21:03:37;;;;;;;;;18.00;16.50;;;;;14.24;44.42;99208.41;4796719;28;103521;-87
2022/02/09 21:06:37;;;;;;;;;16.25;15.25;;;;;14.24;44.37;99198.38;4809632;28;103494;-87
2022/02/09 21:11:50;;;;;;;;;17.25;16.00;;;;;14.19;43.91;99200.88;4803209;28;103040;-89
2022/02/09 21:58:02;;;;;;;;;16.25;16.25;;;;;14.10;44.61;99187.69;4820753;28;102198;-89
2022/02/09 22:00:43;;;;;;;;;18.50;15.00;;;;;14.10;44.09;99195.88;4798296;28;102685;-89
2022/02/09 22:06:29;;;;;;;;;14.50;12.25;;;;;14.09;44.08;99192.34;4793192;28;102511;-89
2022/02/09 22:22:40;;;;;;;;;14.50;13.25;;;;;14.06;44.41;99187.28;4799353;28;102229;-89
2022/02/09 22:27:57;;;;;;;;;16.00;12.75;;;;;14.04;44.15;99181.25;4800448;28;103116;-89
2022/02/09 22:30:56;;;;;;;;;17.50;13.75;;;;;14.03;44.07;99182.28;4813534;28;102315;-88
2022/02/09 22:49:47;;;;;;;;;15.00;13.00;;;;;13.98;43.79;99181.22;4795793;28;102832;-88
2022/02/09 22:54:53;;;;;;;;;12.75;12.00;;;;;13.99;43.58;99183.75;4815823;28;102588;-89
2022/02/09 22:57:31;;;;;;;;;16.00;13.00;;;;;13.98;44.52;99182.06;4813077;28;105365;-89
2022/02/09 23:00:07;;;;;;;;;14.00;12.00;;;;;13.98;44.48;99173.91;4829810;28;102645;-88
2022/02/09 23:02:39;;;;;;;;;14.50;13.00;;;;;13.98;44.63;99170.34;4810325;29;102575;-88
2022/02/09 23:08:33;;;;;;;;;10.50;10.50;;;;;13.97;44.41;99155.91;4793871;28;108705;-88
2022/02/09 23:13:23;;;;;;;;;15.00;11.75;;;;;13.95;44.64;99155.31;4811510;28;102511;-88
2022/02/09 23:16:23;;;;;;;;;17.75;13.00;;;;;13.95;44.05;99155.31;4808574;28;102243;-89
